Time;durP1;ratioP1;P1;durP2;ratioP2;P2;SDS_P1;SDS_P2;PMS_P1;PMS_P2;Temp;Humidity;BMP_temperature;BMP_pressure;BME280_temperature;BME280_humidity;BME280_pressure;Samples;Min_cycle;Max_cycle;Signal;HPM_P1;HPM_P2
2022/08/08 00:01:45;;;;;;;10.18;9.07;;;;;;;24.96;54.91;99308.31;5032075;28;20017;-77
2022/08/08 00:04:22;;;;;;;10.50;9.43;;;;;;;24.82;54.66;99286.50;5031696;28;20047;-77
2022/08/08 00:06:54;;;;;;;10.52;9.48;;;;;;;25.15;54.70;99339.03;5031587;28;20383;-77
2022/08/08 00:09:23;;;;;;;10.38;9.38;;;;;;;25.00;54.82;99312.91;5031892;28;20021;-77
2022/08/08 00:12:05;;;;;;;9.90;8.93;;;;;;;25.18;54.71;99341.19;5031744;28;20589;-77
2022/08/08 00:15:12;;;;;;;11.20;9.90;;;;;;;25.21;54.69;99337.13;5030761;28;20037;-77
2022/08/08 00:18:00;;;;;;;11.10;9.82;;;;;;;25.16;54.69;99331.75;4987668;28;20041;-77
2022/08/08 00:20:50;;;;;;;11.98;9.20;;;;;;;25.10;54.61;99332.84;5031792;28;20044;-77
2022/08/08 00:23:59;;;;;;;10.53;9.57;;;;;;;25.03;54.89;99331.28;5020780;28;20044;-76
2022/08/08 00:26:38;;;;;;;10.30;9.30;;;;;;;25.04;54.70;99329.38;5029378;28;20048;-77
2022/08/08 00:29:10;;;;;;;9.63;8.70;;;;;;;24.99;55.15;99327.50;5031474;28;20021;-77
2022/08/08 00:31:42;;;;;;;10.00;9.10;;;;;;;24.96;55.07;99327.22;5030163;28;20037;-77
2022/08/08 00:37:17;;;;;;;10.18;8.75;;;;;;;24.95;55.55;99331.00;5031797;28;20398;-77
2022/08/08 00:39:53;;;;;;;9.48;8.68;;;;;;;25.03;54.75;99333.16;5031385;28;20029;-77
2022/08/08 00:42:40;;;;;;;9.52;8.60;;;;;;;25.13;54.92;99333.09;5030090;28;20021;-77
2022/08/08 00:45:27;;;;;;;9.60;8.80;;;;;;;25.20;54.85;99327.41;5031238;28;20092;-77
2022/08/08 00:48:04;;;;;;;10.05;7.70;;;;;;;25.25;54.45;99322.78;5029995;28;20406;-77
2022/08/08 00:51:12;;;;;;;9.43;8.40;;;;;;;25.30;54.04;99328.19;5031359;28;20037;-77
2022/08/08 00:54:06;;;;;;;9.68;8.02;;;;;;;25.27;54.15;99323.31;5031297;28;20025;-77
2022/08/08 00:56:50;;;;;;;9.38;8.48;;;;;;;25.30;54.30;99321.97;5031365;28;20502;-77
2022/08/08 00:59:18;;;;;;;9.55;8.65;;;;;;;25.31;53.88;99326.28;5031133;28;20036;-77
2022/08/08 01:01:58;;;;;;;9.85;8.75;;;;;;;25.32;53.89;99327.91;5031161;28;20025;-77
2022/08/08 01:04:29;;;;;;;9.40;8.60;;;;;;;25.32;54.10;99317.09;5030993;28;20018;-76
2022/08/08 01:07:06;;;;;;;10.27;8.52;;;;;;;25.33;53.85;99327.63;5031062;28;20117;-76
2022/08/08 01:09:52;;;;;;;9.95;9.00;;;;;;;25.35;54.22;99321.94;5030937;28;20036;-76
2022/08/08 01:12:35;;;;;;;10.23;8.98;;;;;;;25.36;54.15;99328.94;5031237;28;20017;-77
2022/08/08 01:15:18;;;;;;;9.02;8.23;;;;;;;25.31;54.03;99321.69;5029543;28;20025;-77
2022/08/08 01:18:18;;;;;;;9.45;8.55;;;;;;;25.29;54.07;99321.16;5029397;28;20138;-77
2022/08/08 01:21:20;;;;;;;9.27;8.38;;;;;;;25.28;53.98;99322.25;5030870;28;20021;-77
2022/08/08 01:23:54;;;;;;;10.77;9.18;;;;;;;25.27;53.69;99328.72;5030867;28;20021;-77
2022/08/08 01:26:26;;;;;;;10.25;8.88;;;;;;;25.27;53.80;99330.63;5031721;28;20037;-77
2022/08/08 01:29:12;;;;;;;12.20;9.45;;;;;;;25.24;53.73;99333.84;5034748;28;20513;-77
2022/08/08 01:31:58;;;;;;;10.50;8.90;;;;;;;25.15;53.80;99349.03;5034681;28;20037;-77
2022/08/08 01:34:54;;;;;;;10.75;9.73;;;;;;;25.01;54.36;99348.84;5034301;28;20037;-77
2022/08/08 01:37:57;;;;;;;9.77;8.98;;;;;;;24.95;54.51;99345.31;5033014;28;20425;-76
2022/08/08 01:40:35;;;;;;;9.88;8.95;;;;;;;24.88;54.56;99342.13;5034503;28;20407;-77
2022/08/08 01:43:19;;;;;;;9.90;9.02;;;;;;;24.87;54.46;99340.50;5034599;28;20083;-77
2022/08/08 01:45:59;;;;;;;9.98;9.00;;;;;;;24.87;54.59;99343.19;5034402;28;20032;-77
2022/08/08 01:48:40;;;;;;;9.70;8.80;;;;;;;24.83;54.53;99344.03;5034360;28;20033;-77
2022/08/08 01:51:43;;;;;;;8.88;8.15;;;;;;;24.76;54.70;99338.94;5034484;28;20029;-76
2022/08/08 01:54:32;;;;;;;9.60;8.63;;;;;;;24.78;54.58;99333.25;5034205;28;20034;-77
2022/08/08 01:57:01;;;;;;;9.70;8.70;;;;;;;24.78;54.47;99336.75;5034178;28;20053;-77
2022/08/08 01:59:46;;;;;;;9.82;7.75;;;;;;;24.85;54.39;99342.66;5034334;28;20029;-77
2022/08/08 02:02:32;;;;;;;9.07;8.18;;;;;;;24.82;54.03;99337.81;5034195;28;20060;-76
2022/08/08 02:05:12;;;;;;;9.25;8.35;;;;;;;24.83;53.49;99336.72;5034277;28;20021;-77
2022/08/08 02:07:59;;;;;;;10.30;9.30;;;;;;;24.82;53.79;99337.00;5034091;28;20029;-77
2022/08/08 02:10:40;;;;;;;9.38;8.50;;;;;;;24.87;53.66;99345.09;5033841;28;20047;-77
2022/08/08 02:13:28;;;;;;;10.07;9.13;;;;;;;24.88;53.88;99347.50;5032536;28;20491;-77
2022/08/08 02:16:16;;;;;;;10.13;9.02;;;;;;;24.91;53.73;99346.97;5032458;28;20033;-77
2022/08/08 02:18:57;;;;;;;10.57;8.40;;;;;;;24.94;53.95;99340.19;5033720;28;20037;-77
2022/08/08 02:24:18;;;;;;;11.82;8.93;;;;;;;24.52;53.49;99281.22;5033871;28;20113;-77
2022/08/08 02:26:51;;;;;;;9.90;8.90;;;;;;;24.85;53.54;99325.66;5033611;28;20029;-77
2022/08/08 02:29:37;;;;;;;10.55;9.25;;;;;;;24.95;53.59;99341.81;5033610;28;20021;-77
2022/08/08 02:32:20;;;;;;;9.18;8.38;;;;;;;24.93;53.47;99342.09;5033664;28;20036;-77
2022/08/08 02:35:00;;;;;;;10.63;8.95;;;;;;;24.93;53.29;99349.38;5033472;28;20449;-77
2022/08/08 02:37:38;;;;;;;9.20;8.38;;;;;;;24.68;53.33;99312.50;5032446;28;20029;-77
2022/08/08 02:40:07;;;;;;;8.85;8.05;;;;;;;24.92;53.42;99350.47;5033503;28;20032;-76
2022/08/08 02:43:09;;;;;;;11.07;8.13;;;;;;;24.94;53.29;99348.31;5033427;28;20126;-77
2022/08/08 02:46:13;;;;;;;9.45;8.50;;;;;;;24.92;53.49;99356.69;5033347;28;20021;-76
2022/08/08 02:49:16;;;;;;;10.02;8.98;;;;;;;24.91;53.31;99356.97;5019683;28;20103;-76
2022/08/08 02:51:52;;;;;;;9.63;8.38;;;;;;;24.90;53.28;99355.34;5032111;28;20407;-76
2022/08/08 02:54:32;;;;;;;11.68;8.93;;;;;;;24.92;53.23;99353.16;5033194;28;20045;-77
2022/08/08 02:57:16;;;;;;;8.88;7.93;;;;;;;24.90;53.09;99352.66;5033252;28;20025;-77
2022/08/08 03:00:14;;;;;;;8.88;7.97;;;;;;;24.86;53.59;99349.69;5033024;28;20541;-77
2022/08/08 03:03:04;;;;;;;9.60;8.55;;;;;;;24.85;53.67;99352.66;5032952;28;20029;-76
2022/08/08 03:05:50;;;;;;;11.65;8.95;;;;;;;24.82;53.16;99355.91;5032807;28;20018;-76
2022/08/08 03:08:31;;;;;;;11.57;8.70;;;;;;;24.78;53.49;99355.66;5031473;28;20029;-76
2022/08/08 03:11:15;;;;;;;9.48;8.45;;;;;;;24.76;53.40;99367.81;5031603;28;20055;-76
2022/08/08 03:14:12;;;;;;;10.25;8.70;;;;;;;24.52;53.53;99335.19;5032887;28;20083;-77
2022/08/08 03:16:59;;;;;;;9.82;8.82;;;;;;;24.69;53.18;99371.63;5032607;28;20430;-76
2022/08/08 03:20:05;;;;;;;10.70;8.63;;;;;;;24.67;53.49;99365.69;5017266;28;20032;-76
2022/08/08 03:22:33;;;;;;;9.70;8.70;;;;;;;24.59;53.57;99385.16;5031414;28;20033;-76
2022/08/08 03:25:02;;;;;;;10.43;9.35;;;;;;;24.68;53.79;99382.69;5032375;28;20029;-76
2022/08/08 03:27:38;;;;;;;10.75;8.70;;;;;;;24.68;53.62;99383.50;5032364;28;20032;-77
2022/08/08 03:30:10;;;;;;;9.15;8.25;;;;;;;24.67;53.13;99389.19;5032380;28;20560;-77
2022/08/08 03:35:24;;;;;;;8.93;7.88;;;;;;;24.39;53.18;99345.47;5032539;28;20174;-76
2022/08/08 03:37:51;;;;;;;9.40;8.50;;;;;;;24.74;53.10;99397.00;5031236;28;20044;-77
2022/08/08 03:40:21;;;;;;;9.43;8.32;;;;;;;24.74;52.93;99397.00;5030987;28;20037;-77
2022/08/08 03:42:47;;;;;;;10.00;8.73;;;;;;;24.78;52.88;99401.56;5032285;28;20037;-77
2022/08/08 03:45:17;;;;;;;9.23;8.18;;;;;;;24.41;52.39;99342.50;5032175;28;20040;-77
2022/08/08 03:47:43;;;;;;;10.10;8.20;;;;;;;24.66;52.41;99380.28;5032017;28;20021;-77
2022/08/08 03:50:17;;;;;;;8.93;8.20;;;;;;;24.86;52.27;99398.28;5031949;28;20036;-77
2022/08/08 03:52:43;;;;;;;8.52;7.20;;;;;;;24.87;51.84;99394.50;5030962;28;20395;-77
2022/08/08 03:55:14;;;;;;;9.77;8.20;;;;;;;24.87;51.68;99399.09;5031998;28;20029;-77
2022/08/08 03:57:58;;;;;;;8.38;7.57;;;;;;;24.90;51.55;99409.34;5030669;28;20040;-77
2022/08/08 04:00:25;;;;;;;9.60;8.60;;;;;;;24.89;51.75;99407.75;5032122;28;20461;-77
2022/08/08 04:03:06;;;;;;;9.95;8.57;;;;;;;24.51;52.05;99357.88;5031901;28;20080;-77
2022/08/08 04:05:33;;;;;;;11.07;8.73;;;;;;;24.80;52.27;99417.50;5030400;28;20029;-77
2022/08/08 04:08:01;;;;;;;10.00;9.00;;;;;;;24.83;52.16;99406.94;5031620;28;20022;-76
2022/08/08 04:10:28;;;;;;;9.13;8.13;;;;;;;24.83;52.19;99416.94;5031782;28;20025;-77
2022/08/08 04:12:55;;;;;;;10.40;8.27;;;;;;;24.85;52.40;99415.59;5032098;28;20025;-77
2022/08/08 04:15:21;;;;;;;10.25;9.13;;;;;;;24.80;51.84;99415.59;5030104;28;20040;-77
2022/08/08 04:17:46;;;;;;;9.02;8.23;;;;;;;24.86;51.83;99419.91;5031374;28;20045;-76
2022/08/08 04:20:12;;;;;;;9.65;8.60;;;;;;;24.62;52.03;99386.50;5031660;28;20410;-76
2022/08/08 04:22:38;;;;;;;9.25;8.45;;;;;;;24.78;52.24;99417.75;5031565;28;20034;-77
2022/08/08 04:25:05;;;;;;;9.48;8.50;;;;;;;24.84;52.20;99415.84;5031408;28;20026;-76
2022/08/08 04:27:30;;;;;;;9.43;8.52;;;;;;;24.87;52.21;99429.63;5030048;28;20034;-76
2022/08/08 04:29:56;;;;;;;9.98;8.98;;;;;;;24.65;52.35;99404.84;5031443;28;20034;-77
2022/08/08 04:32:21;;;;;;;10.50;9.60;;;;;;;24.42;52.61;99360.31;5030246;28;20029;-77
2022/08/08 04:34:47;;;;;;;11.18;9.10;;;;;;;24.84;52.69;99426.66;5031446;28;20029;-77
2022/08/08 04:37:12;;;;;;;11.50;9.57;;;;;;;24.87;52.73;99440.44;5031432;28;20018;-76
2022/08/08 04:39:38;;;;;;;11.27;10.02;;;;;;;24.59;52.72;99393.25;5031412;28;20036;-77
2022/08/08 04:42:04;;;;;;;11.20;9.60;;;;;;;24.84;52.82;99437.47;5030142;28;20021;-76
2022/08/08 04:44:30;;;;;;;11.93;9.18;;;;;;;24.57;52.65;99406.22;5031327;28;20513;-77
2022/08/08 04:46:56;;;;;;;10.73;9.10;;;;;;;24.66;53.18;99420.75;5031302;28;20021;-76
2022/08/08 04:49:21;;;;;;;10.90;9.73;;;;;;;24.68;52.84;99415.91;5031179;28;20112;-76
2022/08/08 04:51:47;;;;;;;11.05;8.60;;;;;;;24.94;52.58;99445.53;5031094;28;20106;-77
2022/08/08 04:54:12;;;;;;;11.55;9.90;;;;;;;25.00;52.60;99445.28;5031051;28;20464;-76
2022/08/08 04:56:37;;;;;;;10.52;9.13;;;;;;;24.99;52.31;99440.16;5031149;28;20033;-77
2022/08/08 04:59:03;;;;;;;10.23;9.25;;;;;;;25.10;52.45;99457.94;5031056;28;20087;-76
2022/08/08 05:01:30;;;;;;;10.77;9.48;;;;;;;25.16;52.67;99450.63;5033886;28;20025;-76
2022/08/08 05:03:55;;;;;;;9.95;8.80;;;;;;;24.87;52.08;99412.59;5035124;28;20029;-76
2022/08/08 05:06:21;;;;;;;10.55;9.55;;;;;;;25.17;52.41;99458.47;5035010;28;20039;-77
2022/08/08 05:08:47;;;;;;;12.27;9.13;;;;;;;25.19;52.05;99461.69;5034775;28;20035;-76
2022/08/08 05:11:15;;;;;;;11.13;9.13;;;;;;;24.94;52.27;99422.03;5035157;28;20025;-76
2022/08/08 05:13:40;;;;;;;11.23;9.70;;;;;;;25.24;51.91;99460.88;5034849;28;20026;-76
2022/08/08 05:16:07;;;;;;;10.55;9.18;;;;;;;25.28;52.12;99464.66;5035086;28;20460;-77
2022/08/08 05:18:32;;;;;;;9.65;8.30;;;;;;;25.05;51.67;99425.53;5034762;28;20049;-76
2022/08/08 05:20:59;;;;;;;9.52;8.63;;;;;;;25.31;51.33;99466.81;5034872;28;20029;-76
2022/08/08 05:23:25;;;;;;;9.43;8.35;;;;;;;25.33;51.40;99461.94;5033531;28;20033;-76
2022/08/08 05:25:50;;;;;;;9.27;8.40;;;;;;;25.36;51.22;99472.19;5034699;28;20086;-76
2022/08/08 05:28:16;;;;;;;9.38;8.50;;;;;;;25.39;51.17;99465.44;5034662;28;20049;-76
2022/08/08 05:30:42;;;;;;;9.27;8.38;;;;;;;25.44;50.95;99474.31;5034520;28;20096;-76
2022/08/08 05:33:08;;;;;;;14.38;8.57;;;;;;;25.13;50.88;99414.16;5033077;28;20535;-76
2022/08/08 05:35:34;;;;;;;10.43;9.10;;;;;;;25.38;50.58;99451.09;5034564;28;20048;-76
2022/08/08 05:38:03;;;;;;;8.63;7.65;;;;;;;25.48;50.07;99469.97;5034380;28;20025;-76
2022/08/08 05:40:30;;;;;;;9.82;7.72;;;;;;;25.46;50.38;99461.34;5034550;28;20079;-76
2022/08/08 05:43:06;;;;;;;11.93;9.32;;;;;;;25.55;50.17;99466.97;5030774;28;20025;-76
2022/08/08 05:45:36;;;;;;;9.82;7.95;;;;;;;25.62;49.45;99471.00;5026924;28;20086;-76
2022/08/08 05:48:03;;;;;;;9.13;7.38;;;;;;;25.66;49.01;99473.97;5028054;28;20029;-77
2022/08/08 05:50:30;;;;;;;10.52;7.10;;;;;;;25.74;48.55;99475.28;5034167;28;20025;-77
2022/08/08 05:52:56;;;;;;;10.23;8.15;;;;;;;25.81;48.62;99479.31;5034305;28;20034;-77
2022/08/08 05:55:22;;;;;;;8.68;7.13;;;;;;;25.64;48.55;99457.19;5034092;28;20021;-77
2022/08/08 05:57:51;;;;;;;9.60;7.50;;;;;;;25.63;48.08;99442.88;5034038;28;20037;-77
2022/08/08 06:00:18;;;;;;;7.47;6.70;;;;;;;25.95;48.11;99487.59;5034802;28;20029;-77
2022/08/08 06:05:33;;;;;;;11.00;8.02;;;;;;;25.72;48.65;99461.25;5014275;28;20087;-76
2022/08/08 06:08:00;;;;;;;8.98;7.85;;;;;;;26.00;48.57;99503.00;5033133;28;20035;-76
2022/08/08 06:10:31;;;;;;;11.02;8.10;;;;;;;26.03;48.58;99494.34;5033638;28;20104;-77
2022/08/08 06:12:56;;;;;;;8.15;7.35;;;;;;;26.04;48.84;99501.38;5032539;28;20041;-76
2022/08/08 06:15:22;;;;;;;8.80;8.05;;;;;;;26.04;48.52;99479.72;5033693;28;20026;-77
2022/08/08 06:17:49;;;;;;;9.10;7.43;;;;;;;26.14;48.09;99502.13;5033418;28;20107;-77
2022/08/08 06:20:14;;;;;;;9.55;6.97;;;;;;;26.15;47.43;99490.19;5033132;28;20032;-77
2022/08/08 06:22:40;;;;;;;10.82;7.60;;;;;;;25.89;47.69;99464.38;5033546;28;20029;-77
2022/08/08 06:25:06;;;;;;;7.72;6.50;;;;;;;26.23;47.13;99503.13;5033309;28;20110;-77
2022/08/08 06:27:37;;;;;;;7.78;6.90;;;;;;;26.27;46.82;99504.19;5033456;28;20024;-76
2022/08/08 06:30:06;;;;;;;8.77;7.40;;;;;;;26.06;46.74;99464.03;5033281;28;20033;-77
2022/08/08 06:32:57;;;;;;;7.45;6.85;;;;;;;26.16;46.73;99482.88;5033164;28;20036;-77
2022/08/08 06:35:23;;;;;;;9.50;8.65;;;;;;;26.07;46.87;99463.75;5028445;28;20041;-77
2022/08/08 06:38:03;;;;;;;9.32;8.43;;;;;;;26.42;46.41;99503.28;5013655;28;20026;-77
2022/08/08 06:40:30;;;;;;;8.40;7.60;;;;;;;26.52;45.99;99505.09;5014162;28;20053;-76
2022/08/08 06:43:04;;;;;;;7.03;6.35;;;;;;;26.58;45.63;99515.59;5033150;28;20040;-76
2022/08/08 06:45:32;;;;;;;8.68;7.60;;;;;;;26.35;45.34;99472.22;5033221;28;20032;-77
2022/08/08 06:47:58;;;;;;;8.13;6.15;;;;;;;26.33;44.79;99458.97;5033050;28;20032;-77
2022/08/08 06:50:24;;;;;;;8.35;6.50;;;;;;;26.71;44.81;99519.56;5033292;28;20099;-77
2022/08/08 06:52:50;;;;;;;7.97;6.47;;;;;;;26.78;44.81;99520.06;5025122;28;20491;-76
2022/08/08 06:55:24;;;;;;;9.32;6.47;;;;;;;26.87;44.47;99518.34;5013416;28;20030;-77
2022/08/08 06:57:50;;;;;;;10.13;7.07;;;;;;;26.72;44.59;99493.28;5013328;28;20030;-76
2022/08/08 07:00:16;;;;;;;6.80;6.20;;;;;;;27.01;44.18;99517.72;5013415;28;20033;-77
2022/08/08 07:02:45;;;;;;;8.48;6.88;;;;;;;27.02;43.98;99508.47;5030105;28;20083;-77
2022/08/08 07:05:15;;;;;;;9.10;6.07;;;;;;;27.17;43.56;99525.38;5027528;28;20021;-77
2022/08/08 07:08:16;;;;;;;8.30;6.55;;;;;;;27.27;43.32;99526.38;5026853;28;20029;-77
2022/08/08 07:10:48;;;;;;;8.02;7.22;;;;;;;27.31;43.83;99513.84;5017809;28;20045;-77
2022/08/08 07:13:18;;;;;;;8.55;7.75;;;;;;;27.38;43.64;99517.03;5031862;28;20053;-77
2022/08/08 07:15:50;;;;;;;8.95;8.05;;;;;;;27.40;43.92;99501.28;5032723;28;20108;-77
2022/08/08 07:18:28;;;;;;;9.48;8.57;;;;;;;27.57;43.92;99509.75;5025684;28;20129;-77
2022/08/08 07:21:02;;;;;;;8.40;7.47;;;;;;;27.33;43.17;99463.66;5032053;28;20021;-77
2022/08/08 07:23:43;;;;;;;9.10;8.20;;;;;;;27.72;42.63;99538.63;5031524;28;20060;-77
2022/08/08 07:26:09;;;;;;;11.57;9.93;;;;;;;27.74;42.86;99512.81;5028000;28;20414;-77
2022/08/08 07:28:36;;;;;;;9.82;8.75;;;;;;;27.91;42.90;99509.59;5030138;28;20116;-77
2022/08/08 07:31:04;;;;;;;9.85;8.82;;;;;;;27.95;43.02;99510.63;5031151;28;20084;-77
2022/08/08 07:33:30;;;;;;;9.93;8.70;;;;;;;27.71;42.53;99455.63;5029440;28;20465;-77
2022/08/08 07:35:56;;;;;;;8.98;8.07;;;;;;;28.15;42.58;99531.25;5029979;28;20990;-77
2022/08/08 07:38:22;;;;;;;7.10;6.30;;;;;;;27.85;41.75;99462.75;5030969;28;20044;-77
2022/08/08 07:40:47;;;;;;;16.95;7.05;;;;;;;28.01;41.89;99489.66;5031277;28;20091;-77
2022/08/08 07:43:13;;;;;;;8.70;6.50;;;;;;;28.32;41.64;99519.91;5031969;28;20029;-77
2022/08/08 07:45:41;;;;;;;6.97;6.22;;;;;;;28.43;40.91;99518.66;5031768;28;20029;-77
2022/08/08 07:48:07;;;;;;;9.30;6.78;;;;;;;28.51;40.89;99520.69;5029667;28;20029;-77
2022/08/08 07:50:33;;;;;;;9.23;6.75;;;;;;;28.61;40.29;99522.44;5029194;28;20517;-77
2022/08/08 07:53:03;;;;;;;7.88;6.38;;;;;;;28.68;39.95;99510.06;5027882;28;20571;-77
2022/08/08 07:55:30;;;;;;;10.98;8.10;;;;;;;28.77;39.42;99526.50;5030132;28;20060;-77
2022/08/08 07:58:02;;;;;;;11.27;9.38;;;;;;;28.91;39.56;99524.66;5030143;28;20059;-77
2022/08/08 08:01:04;;;;;;;11.68;6.90;;;;;;;28.98;38.26;99508.75;5026356;28;20048;-77
2022/08/08 08:03:44;;;;;;;10.27;8.23;;;;;;;29.18;37.95;99528.53;5006713;28;20037;-77
2022/08/08 08:06:12;;;;;;;7.60;5.32;;;;;;;29.27;37.64;99529.44;5026518;28;20159;-77
2022/08/08 08:08:47;;;;;;;6.10;5.22;;;;;;;29.10;37.05;99478.38;5031774;28;20029;-77
2022/08/08 08:11:14;;;;;;;8.38;5.72;;;;;;;29.48;37.34;99517.09;5019682;28;20113;-77
2022/08/08 08:14:14;;;;;;;9.40;6.78;;;;;;;29.56;37.28;99521.81;5017851;28;20029;-76
2022/08/08 08:16:40;;;;;;;11.27;5.20;;;;;;;29.50;36.83;99498.53;4988293;28;20603;-77
2022/08/08 08:19:08;;;;;;;9.77;5.68;;;;;;;29.24;36.21;99430.25;5012792;28;20069;-77
2022/08/08 08:21:53;;;;;;;10.60;7.05;;;;;;;29.92;36.17;99521.06;5028440;28;20075;-77
2022/08/08 08:24:19;;;;;;;6.25;5.63;;;;;;;29.91;35.84;99494.97;5030141;28;20049;-77
2022/08/08 08:26:45;;;;;;;9.20;6.00;;;;;;;29.77;35.15;99467.78;5031474;28;20083;-77
2022/08/08 08:29:10;;;;;;;9.60;5.95;;;;;;;30.14;35.27;99502.06;5031507;28;20088;-77
2022/08/08 08:31:36;;;;;;;10.38;4.80;;;;;;;30.13;34.79;99478.69;5031099;28;20498;-77
2022/08/08 08:34:01;;;;;;;9.45;7.45;;;;;;;30.04;34.51;99451.38;5027989;28;20014;-77
2022/08/08 08:36:27;;;;;;;6.25;5.20;;;;;;;30.58;34.27;99519.56;5010496;28;20044;-77
2022/08/08 08:38:53;;;;;;;6.70;5.85;;;;;;;30.45;33.95;99482.25;5015730;28;20037;-77
2022/08/08 08:41:19;;;;;;;8.60;5.45;;;;;;;30.74;33.30;99515.38;5029974;28;20029;-77
2022/08/08 08:43:46;;;;;;;6.93;4.30;;;;;;;30.51;33.39;99460.06;5023481;28;20108;-77
2022/08/08 08:46:12;;;;;;;7.10;4.85;;;;;;;30.75;33.35;99473.34;5027619;28;20112;-77
2022/08/08 08:48:41;;;;;;;9.00;4.97;;;;;;;30.97;32.91;99488.84;5029618;28;20454;-77
2022/08/08 08:51:11;;;;;;;9.10;5.30;;;;;;;31.29;32.58;99513.09;5030658;28;20091;-77
2022/08/08 08:53:53;;;;;;;9.10;4.77;;;;;;;31.42;31.52;99495.00;5030696;28;20072;-77
2022/08/08 08:56:20;;;;;;;6.78;4.38;;;;;;;31.49;32.29;99483.63;5028947;28;20024;-77
2022/08/08 08:58:49;;;;;;;7.18;4.15;;;;;;;31.37;31.62;99440.56;5030136;28;20033;-77
2022/08/08 09:01:23;;;;;;;5.47;3.92;;;;;;;31.76;31.37;99488.03;5016513;28;20025;-77
2022/08/08 09:03:49;;;;;;;6.30;3.42;;;;;;;31.89;31.26;99503.47;5028607;28;20025;-77
2022/08/08 09:06:31;;;;;;;5.68;3.65;;;;;;;31.93;29.83;99474.38;5026884;28;20112;-77
2022/08/08 09:09:26;;;;;;;5.97;3.97;;;;;;;32.07;29.27;99475.06;5029747;28;20093;-76
2022/08/08 09:11:53;;;;;;;11.52;3.50;;;;;;;32.15;29.94;99474.25;5010901;28;20626;-76
2022/08/08 09:14:24;;;;;;;10.07;4.00;;;;;;;32.31;29.45;99460.91;5010845;28;20022;-77
2022/08/08 09:16:51;;;;;;;6.97;3.33;;;;;;;32.17;29.33;99447.41;5024967;28;20062;-76
2022/08/08 09:19:16;;;;;;;7.85;3.60;;;;;;;32.50;29.16;99471.47;5028822;28;20051;-76
2022/08/08 09:21:44;;;;;;;6.40;4.03;;;;;;;32.55;29.22;99443.97;5029894;28;20029;-76
2022/08/08 09:24:10;;;;;;;5.78;3.20;;;;;;;32.85;28.86;99458.56;5030971;28;20104;-76
2022/08/08 09:27:01;;;;;;;7.80;4.40;;;;;;;32.95;28.72;99438.25;5030699;28;20112;-76
2022/08/08 09:29:30;;;;;;;;;;;;;;;32.96;29.22;99453.53;5024552;28;20533;-76
2022/08/08 09:32:04;;;;;;;10.18;4.57;;;;;;;33.11;28.15;99426.44;5028757;28;19909;-76
2022/08/08 09:34:37;;;;;;;4.97;3.22;;;;;;;33.51;27.57;99453.44;5030520;28;20025;-76
2022/08/08 09:37:07;;;;;;;7.38;4.38;;;;;;;33.63;26.30;99447.25;5030470;28;20036;-76
2022/08/08 09:40:01;;;;;;;5.75;4.50;;;;;;;33.51;26.15;99403.38;5030552;28;20996;-76
2022/08/08 09:42:35;;;;;;;7.68;3.13;;;;;;;34.01;25.55;99439.69;5028391;28;20124;-76
2022/08/08 09:45:19;;;;;;;6.13;3.13;;;;;;;34.17;24.71;99437.13;5025755;28;20084;-77
2022/08/08 09:47:45;;;;;;;5.97;3.25;;;;;;;34.33;24.83;99435.41;5029219;28;20087;-76
2022/08/08 09:50:13;;;;;;;4.75;2.80;;;;;;;34.32;25.04;99424.75;5031352;28;20067;-76
2022/08/08 09:52:48;;;;;;;5.85;3.10;;;;;;;34.25;24.98;99366.97;5029205;28;20032;-76
2022/08/08 09:55:14;;;;;;;5.43;3.13;;;;;;;34.69;24.48;99433.88;5028200;28;20507;-76
2022/08/08 09:57:47;;;;;;;3.75;2.72;;;;;;;34.44;24.30;99359.03;5030124;28;20086;-77
2022/08/08 10:00:15;;;;;;;8.80;4.57;;;;;;;34.85;24.76;99407.41;5026489;28;20033;-76
2022/08/08 10:02:46;;;;;;;5.38;2.75;;;;;;;34.99;24.29;99429.84;5032099;28;20064;-76
2022/08/08 10:05:17;;;;;;;7.72;3.33;;;;;;;34.47;23.78;99415.13;5033723;28;20022;-76
2022/08/08 10:07:52;;;;;;;5.95;4.32;;;;;;;34.46;24.38;99414.31;5032353;28;20060;-76
2022/08/08 10:10:32;;;;;;;7.40;3.00;;;;;;;34.65;23.96;99408.28;5033746;28;20049;-78
2022/08/08 10:12:59;;;;;;;4.95;2.83;;;;;;;34.71;24.41;99376.75;5033472;28;20048;-78
2022/08/08 10:15:27;;;;;;;4.90;2.63;;;;;;;35.11;24.55;99403.53;5033540;28;20564;-78
2022/08/08 10:17:55;;;;;;;8.23;2.90;;;;;;;35.40;24.35;99406.03;5033490;28;20068;-78
2022/08/08 10:20:22;;;;;;;6.78;4.60;;;;;;;35.44;24.16;99403.41;5033518;28;20029;-78
2022/08/08 10:22:59;;;;;;;4.85;2.40;;;;;;;35.33;23.80;99411.31;5033498;28;20139;-79
2022/08/08 10:25:26;;;;;;;9.68;3.20;;;;;;;35.33;23.63;99395.63;5033459;28;20414;-76
2022/08/08 10:27:53;;;;;;;3.97;3.22;;;;;;;35.39;23.91;99378.94;5033222;28;20036;-76
2022/08/08 10:30:20;;;;;;;4.45;2.90;;;;;;;35.31;23.75;99356.72;5033120;28;20120;-76
2022/08/08 10:32:57;;;;;;;6.72;3.22;;;;;;;35.83;23.42;99390.84;5033096;28;20034;-76
2022/08/08 10:35:25;;;;;;;7.78;3.08;;;;;;;35.75;23.89;99411.00;5033387;28;20030;-76
2022/08/08 10:38:03;;;;;;;6.18;3.05;;;;;;;35.89;23.08;99395.75;5033214;28;20029;-76
2022/08/08 10:40:30;;;;;;;6.07;2.90;;;;;;;35.79;23.47;99368.75;5033049;28;20441;-78
2022/08/08 10:43:02;;;;;;;8.05;3.22;;;;;;;36.15;22.90;99403.50;5033064;28;20025;-78
2022/08/08 10:45:29;;;;;;;4.85;2.50;;;;;;;36.32;23.18;99416.16;5033166;28;20025;-77
2022/08/08 10:47:57;;;;;;;6.43;2.88;;;;;;;36.26;22.98;99401.06;5033063;28;20033;-78
2022/08/08 10:50:34;;;;;;;5.68;3.10;;;;;;;36.05;22.88;99327.06;5032976;28;20053;-78
2022/08/08 10:53:08;;;;;;;6.53;2.47;;;;;;;36.21;22.82;99318.84;5032865;28;20083;-78
2022/08/08 10:55:36;;;;;;;7.45;3.30;;;;;;;36.54;22.77;99382.59;5031674;28;20029;-79
2022/08/08 10:58:09;;;;;;;4.25;3.25;;;;;;;36.79;22.76;99385.19;5032034;28;20100;-76
2022/08/08 11:00:42;;;;;;;7.10;3.15;;;;;;;36.81;22.52;99382.88;5032934;28;20083;-78
2022/08/08 11:03:13;;;;;;;4.70;2.50;;;;;;;36.98;21.85;99376.19;5033056;28;20026;-78
2022/08/08 11:05:58;;;;;;;6.45;3.92;;;;;;;36.78;22.06;99312.03;5032778;28;20071;-79
2022/08/08 11:08:27;;;;;;;6.43;3.30;;;;;;;37.51;21.66;99378.19;5032553;28;20490;-79
2022/08/08 11:11:08;;;;;;;8.77;3.78;;;;;;;37.56;20.34;99373.56;5032501;28;20017;-79
2022/08/08 11:13:51;;;;;;;6.10;3.58;;;;;;;37.38;20.82;99324.41;5032628;28;20021;-79
2022/08/08 11:16:22;;;;;;;5.25;4.63;;;;;;;37.71;21.36;99364.44;5032464;28;20570;-79
2022/08/08 11:18:49;;;;;;;5.82;3.15;;;;;;;37.83;20.92;99369.81;5032568;28;20025;-79
2022/08/08 11:21:15;;;;;;;8.82;3.40;;;;;;;37.85;20.37;99364.72;5032487;28;20494;-79
2022/08/08 11:23:43;;;;;;;4.60;2.88;;;;;;;37.85;20.26;99353.69;5032284;28;20096;-79
2022/08/08 11:26:12;;;;;;;5.00;2.92;;;;;;;37.79;19.84;99300.03;5032404;28;20033;-79
2022/08/08 11:28:39;;;;;;;6.03;2.40;;;;;;;37.97;20.17;99339.00;5014680;28;20473;-79
2022/08/08 11:31:05;;;;;;;9.38;4.88;;;;;;;38.02;19.95;99350.50;5032198;28;20433;-79
2022/08/08 11:33:34;;;;;;;5.05;3.13;;;;;;;38.10;19.60;99348.69;5030843;28;20033;-79
2022/08/08 11:36:00;;;;;;;7.82;2.90;;;;;;;37.45;19.85;99307.22;5030829;28;20041;-79
2022/08/08 11:38:26;;;;;;;6.50;4.63;;;;;;;36.86;20.56;99350.38;5031595;28;20051;-79
2022/08/08 11:40:53;;;;;;;10.70;3.78;;;;;;;36.77;20.91;99348.97;5030368;28;20071;-79
2022/08/08 11:43:21;;;;;;;5.28;3.42;;;;;;;37.13;20.75;99337.59;5031912;28;20028;-79
2022/08/08 11:45:46;;;;;;;6.43;2.85;;;;;;;37.68;20.34;99345.88;5032066;28;20418;-78
2022/08/08 11:48:16;;;;;;;6.20;3.95;;;;;;;37.83;20.27;99329.25;5032019;28;20040;-79
2022/08/08 11:50:43;;;;;;;6.95;3.47;;;;;;;37.61;20.01;99307.94;5031911;28;20021;-79
2022/08/08 11:53:09;;;;;;;5.43;2.78;;;;;;;38.03;19.96;99341.06;5030598;28;20032;-76
2022/08/08 11:55:47;;;;;;;5.28;2.53;;;;;;;38.04;19.52;99309.59;5031577;28;20014;-77
2022/08/08 11:58:13;;;;;;;5.40;2.78;;;;;;;37.73;19.90;99327.09;5031637;28;20083;-79
2022/08/08 12:00:50;;;;;;;3.97;3.35;;;;;;;37.31;20.57;99349.06;5027645;28;20022;-79
2022/08/08 12:03:18;;;;;;;6.25;3.35;;;;;;;36.74;20.98;99335.88;5032981;28;20017;-76
2022/08/08 12:05:45;;;;;;;5.22;3.70;;;;;;;36.48;21.07;99320.75;5030387;28;20025;-76
2022/08/08 12:08:12;;;;;;;7.45;3.13;;;;;;;36.78;21.00;99347.81;5031257;28;20025;-76
2022/08/08 12:10:49;;;;;;;7.43;3.70;;;;;;;37.00;20.74;99343.59;5031327;28;20470;-76
2022/08/08 12:13:21;;;;;;;4.70;2.63;;;;;;;36.60;21.26;99326.16;5030521;28;20044;-76